Presque Isle — WDH7560 — position and weather

sailwx.info

Track history (hours):
 
Tides and Currents Weather Stations Pressure Air Temp Water Temp Dewpoint Dewpoint Depression Visibility Wind Speed Wind Dir Waves Ship Positions

Presque Isle

Owner: Great Lakes Fleet, Inc., Homewood, IL. More information available from US FCC via Universal Licensing System and Coast Guard Vessel Documentation Center.

Last reported at 2018-Jun-18 06:47 UTC. Time now 2018-Jun-18 17:13 UTC.
Position N 45°51' W 084°22'.

Length 305 m; draft 6.9 m.

Type: Cargo ship. MMSI: 367057570.

Date/timePositionNaut miles runAvg speedWind from/ knotsBaromVisibWave heightAir tempDewpointWater temp
2018-Jun-18 06:47N 45°51' W 084°22'413.2
2018-Jun-18 06:29N 45°51' W 084°28'613.0
2018-Jun-18 06:00N 45°51' W 084°36'612.7
2018-Jun-18 05:30N 45°49' W 084°45'613.1
2018-Jun-18 05:00N 45°49' W 084°55'612.9
2018-Jun-18 04:30N 45°50' W 085°04'5 9.6
2018-Jun-18 03:59N 45°46' W 085°09'612.3
2018-Jun-18 03:30N 45°41' W 085°14'713.0
2018-Jun-18 03:00N 45°36' W 085°19'713.2
2018-Jun-18 02:30N 45°31' W 085°25'713.1
2018-Jun-18 02:00N 45°26' W 085°30'91282.4
2018-Jun-18 02:00N 45°18' W 085°36'2 4.7 200 / 201009.4 2.2 21.6
2018-Jun-18 01:30N 45°20' W 085°36'713.2
2018-Jun-18 01:00N 45°15' W 085°42'71 1.5
2018-Jun-16 00:00N 44°18' W 086°42'6813.5 160 / 181011.5 5.4 15.5
2018-Jun-15 18:58N 45°23' W 086°14'812.8
2018-Jun-15 18:22N 45°30' W 086°11'1112.7
2018-Jun-15 17:30N 45°41' W 086°06'612.3
2018-Jun-15 17:00N 45°44' W 085°59'612.3
2018-Jun-15 16:30N 45°47' W 085°51'612.1
2018-Jun-15 16:00N 45°50' W 085°44'612.1
2018-Jun-15 15:30N 45°53' W 085°36'611.8
2018-Jun-15 15:00N 45°54' W 085°28'612.1
2018-Jun-15 14:30N 45°53' W 085°19'612.2
2018-Jun-15 14:00N 45°52' W 085°11'2149.6
2018-Jun-15 14:00N 45°54' W 085°12'815.7 100 / 141017.210.8 16.1
2018-Jun-15 13:30N 45°51' W 085°02'612.5
2018-Jun-15 13:00N 45°50' W 084°53'612.7
2018-Jun-15 12:30N 45°49' W 084°44'611.8
2018-Jun-15 12:00N 45°51' W 084°36'612.3
2018-Jun-15 11:30N 45°52' W 084°27'612.3
2018-Jun-15 11:00N 45°53' W 084°19'15417.0
2018-Jun-15 02:00N 46°30' W 087°54'10913.6 330 / 111015.910.8 10.5
2018-Jun-14 18:00N 47°24' W 085°36'24911.1 240 / 121017.910.8 4.9
2018-Jun-13 19:33N 47°00' W 091°40'0 5.2
2018-Jun-13 19:28N 47°01' W 091°40'0 0.0
2018-Jun-13 13:30N 47°01' W 091°40'0 0.0
2018-Jun-13 13:00N 47°01' W 091°40'0 0.0
2018-Jun-13 12:30N 47°01' W 091°40'0 0.0
2018-Jun-13 12:00N 47°01' W 091°40'0 0.0
2018-Jun-13 07:56N 47°01' W 091°40'0 0.5
2018-Jun-13 07:30N 47°01' W 091°40'19912.1
2018-Jun-12 15:00N 47°18' W 086°48'10212.8 180 / 221012.5 5.4 7.7
2018-Jun-12 07:00N 46°30' W 084°36'61 6.0 120 / 71015.927.0 11.1
2018-Jun-11 20:47N 45°43' W 083°41'512.8
2018-Jun-11 20:23N 45°38' W 083°36'512.8
2018-Jun-11 20:00N 45°34' W 083°33'612.8
2018-Jun-11 19:30N 45°29' W 083°27'712.8
2018-Jun-11 18:57N 45°23' W 083°22'5112.9
2018-Jun-11 15:00N 44°36' W 082°54'108 2.2 080 / 131018.610.8 8.3
2018-Jun-09 14:00N 46°12' W 084°06'2 2.6 340 / 41022.010.8 12.2
2018-Jun-09 13:09N 46°13' W 084°09'47 5.1
2018-Jun-09 04:00N 46°48' W 084°54'98 7.5 200 / 31021.310.8 12.7
2018-Jun-08 15:00N 47°42' W 086°54'9914.1 230 / 61023.7 5.4 5.5
2018-Jun-08 08:00N 47°24' W 089°18'   080 / 71020.310.8 5.5
Track history (hours):
 
Tides and Currents Weather Stations Pressure Air Temp Water Temp Dewpoint Dewpoint Depression Visibility Wind Speed Wind Dir Waves Ship Positions

Presque Isle

Owner: Great Lakes Fleet, Inc., Homewood, IL. More information available from US FCC via Universal Licensing System and Coast Guard Vessel Documentation Center.

Last reported at 2018-Jun-18 06:47 UTC. Time now 2018-Jun-18 17:13 UTC.
Position N 45°51' W 084°22'.

Length 305 m; draft 6.9 m.

Type: Cargo ship. MMSI: 367057570.

Date/timePositionNaut miles runAvg speedWind from/ knotsBaromVisibWave heightAir tempDewpointWater temp
2018-Jun-18 06:47N 45°51' W 084°22'413.2
2018-Jun-18 06:29N 45°51' W 084°28'613.0
2018-Jun-18 06:00N 45°51' W 084°36'612.7
2018-Jun-18 05:30N 45°49' W 084°45'613.1
2018-Jun-18 05:00N 45°49' W 084°55'612.9
2018-Jun-18 04:30N 45°50' W 085°04'5 9.6
2018-Jun-18 03:59N 45°46' W 085°09'612.3
2018-Jun-18 03:30N 45°41' W 085°14'713.0
2018-Jun-18 03:00N 45°36' W 085°19'713.2
2018-Jun-18 02:30N 45°31' W 085°25'713.1
2018-Jun-18 02:00N 45°26' W 085°30'91282.4
2018-Jun-18 02:00N 45°18' W 085°36'2 4.7 200 / 201009.4 2.2 21.6
2018-Jun-18 01:30N 45°20' W 085°36'713.2
2018-Jun-18 01:00N 45°15' W 085°42'71 1.5
2018-Jun-16 00:00N 44°18' W 086°42'6813.5 160 / 181011.5 5.4 15.5
2018-Jun-15 18:58N 45°23' W 086°14'812.8
2018-Jun-15 18:22N 45°30' W 086°11'1112.7
2018-Jun-15 17:30N 45°41' W 086°06'612.3
2018-Jun-15 17:00N 45°44' W 085°59'612.3
2018-Jun-15 16:30N 45°47' W 085°51'612.1
2018-Jun-15 16:00N 45°50' W 085°44'612.1
2018-Jun-15 15:30N 45°53' W 085°36'611.8
2018-Jun-15 15:00N 45°54' W 085°28'612.1
2018-Jun-15 14:30N 45°53' W 085°19'612.2
2018-Jun-15 14:00N 45°52' W 085°11'2149.6
2018-Jun-15 14:00N 45°54' W 085°12'815.7 100 / 141017.210.8 16.1
2018-Jun-15 13:30N 45°51' W 085°02'612.5
2018-Jun-15 13:00N 45°50' W 084°53'612.7
2018-Jun-15 12:30N 45°49' W 084°44'611.8
2018-Jun-15 12:00N 45°51' W 084°36'612.3
2018-Jun-15 11:30N 45°52' W 084°27'612.3
2018-Jun-15 11:00N 45°53' W 084°19'15417.0
2018-Jun-15 02:00N 46°30' W 087°54'10913.6 330 / 111015.910.8 10.5
2018-Jun-14 18:00N 47°24' W 085°36'24911.1 240 / 121017.910.8 4.9
2018-Jun-13 19:33N 47°00' W 091°40'0 5.2
2018-Jun-13 19:28N 47°01' W 091°40'0 0.0
2018-Jun-13 13:30N 47°01' W 091°40'0 0.0
2018-Jun-13 13:00N 47°01' W 091°40'0 0.0
2018-Jun-13 12:30N 47°01' W 091°40'0 0.0
2018-Jun-13 12:00N 47°01' W 091°40'0 0.0
2018-Jun-13 07:56N 47°01' W 091°40'0 0.5
2018-Jun-13 07:30N 47°01' W 091°40'19912.1
2018-Jun-12 15:00N 47°18' W 086°48'10212.8 180 / 221012.5 5.4 7.7
2018-Jun-12 07:00N 46°30' W 084°36'61 6.0 120 / 71015.927.0 11.1
2018-Jun-11 20:47N 45°43' W 083°41'512.8
2018-Jun-11 20:23N 45°38' W 083°36'512.8
2018-Jun-11 20:00N 45°34' W 083°33'612.8
2018-Jun-11 19:30N 45°29' W 083°27'712.8
2018-Jun-11 18:57N 45°23' W 083°22'5112.9
2018-Jun-11 15:00N 44°36' W 082°54'108 2.2 080 / 131018.610.8 8.3
2018-Jun-09 14:00N 46°12' W 084°06'2 2.6 340 / 41022.010.8 12.2
2018-Jun-09 13:09N 46°13' W 084°09'47 5.1
2018-Jun-09 04:00N 46°48' W 084°54'98 7.5 200 / 31021.310.8 12.7
2018-Jun-08 15:00N 47°42' W 086°54'9914.1 230 / 61023.7 5.4 5.5
2018-Jun-08 08:00N 47°24' W 089°18'   080 / 71020.310.8 5.5

Dump ship's entire track history